sensor_id;sensor_type;location;lat;lon;timestamp;temperature;humidity
285;DHT22;127;48.770;9.212;2022-11-15T00:01:38;10.20;99.90
285;DHT22;127;48.770;9.212;2022-11-15T00:04:07;10.30;99.90
285;DHT22;127;48.770;9.212;2022-11-15T00:06:36;10.30;99.90
285;DHT22;127;48.770;9.212;2022-11-15T00:09:07;10.30;99.90
285;DHT22;127;48.770;9.212;2022-11-15T00:11:36;10.30;99.90
285;DHT22;127;48.770;9.212;2022-11-15T00:14:04;10.30;99.90
285;DHT22;127;48.770;9.212;2022-11-15T00:16:33;10.40;99.90
285;DHT22;127;48.770;9.212;2022-11-15T00:19:02;10.40;99.90
285;DHT22;127;48.770;9.212;2022-11-15T00:21:31;10.60;99.90
285;DHT22;127;48.770;9.212;2022-11-15T00:23:59;10.70;99.90
285;DHT22;127;48.770;9.212;2022-11-15T00:26:30;10.70;99.90
285;DHT22;127;48.770;9.212;2022-11-15T00:28:59;10.90;99.90
285;DHT22;127;48.770;9.212;2022-11-15T00:31:28;10.90;99.90
285;DHT22;127;48.770;9.212;2022-11-15T00:33:56;10.90;99.90
285;DHT22;127;48.770;9.212;2022-11-15T00:36:25;10.90;99.90
285;DHT22;127;48.770;9.212;2022-11-15T00:38:54;10.90;99.90
285;DHT22;127;48.770;9.212;2022-11-15T00:41:22;10.80;99.90
285;DHT22;127;48.770;9.212;2022-11-15T00:43:54;10.80;99.90
285;DHT22;127;48.770;9.212;2022-11-15T00:46:22;10.80;99.90
285;DHT22;127;48.770;9.212;2022-11-15T00:48:51;10.60;99.90
285;DHT22;127;48.770;9.212;2022-11-15T00:51:20;10.60;99.90
285;DHT22;127;48.770;9.212;2022-11-15T00:53:48;10.50;99.90
285;DHT22;127;48.770;9.212;2022-11-15T00:56:17;10.30;99.90
285;DHT22;127;48.770;9.212;2022-11-15T00:58:46;10.20;99.90
285;DHT22;127;48.770;9.212;2022-11-15T01:01:17;10.10;99.90
285;DHT22;127;48.770;9.212;2022-11-15T01:03:46;9.90;99.90
285;DHT22;127;48.770;9.212;2022-11-15T01:06:14;9.70;99.90
285;DHT22;127;48.770;9.212;2022-11-15T01:08:43;9.70;99.90
285;DHT22;127;48.770;9.212;2022-11-15T01:11:12;9.60;99.90
285;DHT22;127;48.770;9.212;2022-11-15T01:13:41;9.40;99.90
285;DHT22;127;48.770;9.212;2022-11-15T01:16:12;9.30;99.90
285;DHT22;127;48.770;9.212;2022-11-15T01:18:45;9.30;99.90
285;DHT22;127;48.770;9.212;2022-11-15T01:21:15;9.30;99.90
285;DHT22;127;48.770;9.212;2022-11-15T01:23:44;9.20;99.90
285;DHT22;127;48.770;9.212;2022-11-15T01:26:15;9.20;99.90
285;DHT22;127;48.770;9.212;2022-11-15T01:28:43;9.10;99.90
285;DHT22;127;48.770;9.212;2022-11-15T01:31:13;9.00;99.90
285;DHT22;127;48.770;9.212;2022-11-15T01:33:45;9.00;99.90
285;DHT22;127;48.770;9.212;2022-11-15T01:36:16;8.90;99.90
285;DHT22;127;48.770;9.212;2022-11-15T01:38:52;8.80;99.90
285;DHT22;127;48.770;9.212;2022-11-15T01:41:22;8.80;99.90
285;DHT22;127;48.770;9.212;2022-11-15T01:43:53;8.70;99.90
285;DHT22;127;48.770;9.212;2022-11-15T01:46:26;8.60;99.90
285;DHT22;127;48.770;9.212;2022-11-15T01:49:01;8.50;99.90
285;DHT22;127;48.770;9.212;2022-11-15T01:51:32;8.40;99.90
285;DHT22;127;48.770;9.212;2022-11-15T01:54:05;8.40;99.90
285;DHT22;127;48.770;9.212;2022-11-15T01:56:38;8.20;99.90
285;DHT22;127;48.770;9.212;2022-11-15T01:59:12;8.10;99.90
285;DHT22;127;48.770;9.212;2022-11-15T02:01:41;8.10;99.90
285;DHT22;127;48.770;9.212;2022-11-15T02:04:15;8.00;99.90
285;DHT22;127;48.770;9.212;2022-11-15T02:06:44;8.00;99.90
285;DHT22;127;48.770;9.212;2022-11-15T02:09:14;8.00;99.90
285;DHT22;127;48.770;9.212;2022-11-15T02:11:44;8.00;99.90
285;DHT22;127;48.770;9.212;2022-11-15T02:14:14;8.00;99.90
285;DHT22;127;48.770;9.212;2022-11-15T02:16:49;8.00;99.90
285;DHT22;127;48.770;9.212;2022-11-15T02:19:41;8.10;99.90
285;DHT22;127;48.770;9.212;2022-11-15T02:22:42;8.10;99.90
285;DHT22;127;48.770;9.212;2022-11-15T02:25:28;8.10;99.90
285;DHT22;127;48.770;9.212;2022-11-15T02:28:12;8.00;99.90
285;DHT22;127;48.770;9.212;2022-11-15T02:30:50;8.00;99.90
285;DHT22;127;48.770;9.212;2022-11-15T02:33:30;8.00;99.90
285;DHT22;127;48.770;9.212;2022-11-15T02:36:00;8.10;99.90
285;DHT22;127;48.770;9.212;2022-11-15T02:38:34;8.20;99.90
285;DHT22;127;48.770;9.212;2022-11-15T02:41:09;8.20;99.90
285;DHT22;127;48.770;9.212;2022-11-15T02:43:42;8.20;99.90
285;DHT22;127;48.770;9.212;2022-11-15T02:46:31;8.20;99.90
285;DHT22;127;48.770;9.212;2022-11-15T02:49:14;8.20;99.90
285;DHT22;127;48.770;9.212;2022-11-15T02:51:45;8.20;99.90
285;DHT22;127;48.770;9.212;2022-11-15T02:54:20;8.30;99.90
285;DHT22;127;48.770;9.212;2022-11-15T02:56:50;8.40;99.90
285;DHT22;127;48.770;9.212;2022-11-15T02:59:40;8.50;99.90
285;DHT22;127;48.770;9.212;2022-11-15T03:02:24;8.60;99.90
285;DHT22;127;48.770;9.212;2022-11-15T03:04:58;8.70;99.90
285;DHT22;127;48.770;9.212;2022-11-15T03:07:35;8.80;99.90
285;DHT22;127;48.770;9.212;2022-11-15T03:10:08;8.90;99.90
285;DHT22;127;48.770;9.212;2022-11-15T03:12:43;8.90;99.90
285;DHT22;127;48.770;9.212;2022-11-15T03:15:18;8.80;99.90
285;DHT22;127;48.770;9.212;2022-11-15T03:17:55;8.80;99.90
285;DHT22;127;48.770;9.212;2022-11-15T03:20:27;8.80;99.90
285;DHT22;127;48.770;9.212;2022-11-15T03:23:00;8.70;99.90
285;DHT22;127;48.770;9.212;2022-11-15T03:25:30;8.50;99.90
285;DHT22;127;48.770;9.212;2022-11-15T03:28:03;8.50;99.90
285;DHT22;127;48.770;9.212;2022-11-15T03:30:34;8.40;99.90
285;DHT22;127;48.770;9.212;2022-11-15T03:33:08;8.40;99.90
285;DHT22;127;48.770;9.212;2022-11-15T03:35:38;8.40;99.90
285;DHT22;127;48.770;9.212;2022-11-15T03:38:14;8.30;99.90
285;DHT22;127;48.770;9.212;2022-11-15T03:40:49;8.30;99.90
285;DHT22;127;48.770;9.212;2022-11-15T03:43:28;8.30;99.90
285;DHT22;127;48.770;9.212;2022-11-15T03:46:01;8.40;99.90
285;DHT22;127;48.770;9.212;2022-11-15T03:48:37;8.40;99.90
285;DHT22;127;48.770;9.212;2022-11-15T03:51:07;8.50;99.90
285;DHT22;127;48.770;9.212;2022-11-15T03:53:36;8.40;99.90
285;DHT22;127;48.770;9.212;2022-11-15T03:56:05;8.40;99.90
285;DHT22;127;48.770;9.212;2022-11-15T03:58:34;8.30;99.90
285;DHT22;127;48.770;9.212;2022-11-15T04:01:02;8.30;99.90
285;DHT22;127;48.770;9.212;2022-11-15T04:03:34;8.30;99.90
285;DHT22;127;48.770;9.212;2022-11-15T04:06:03;8.20;99.90
285;DHT22;127;48.770;9.212;2022-11-15T04:08:31;8.20;99.90
285;DHT22;127;48.770;9.212;2022-11-15T04:11:00;8.10;99.90
285;DHT22;127;48.770;9.212;2022-11-15T04:13:29;8.10;99.90
285;DHT22;127;48.770;9.212;2022-11-15T04:15:57;8.00;99.90
285;DHT22;127;48.770;9.212;2022-11-15T04:18:26;8.00;99.90
285;DHT22;127;48.770;9.212;2022-11-15T04:20:57;7.90;99.90
285;DHT22;127;48.770;9.212;2022-11-15T04:23:38;7.90;99.90
285;DHT22;127;48.770;9.212;2022-11-15T04:26:21;8.00;99.90
285;DHT22;127;48.770;9.212;2022-11-15T04:28:50;8.10;99.90
285;DHT22;127;48.770;9.212;2022-11-15T04:31:31;8.10;99.90
285;DHT22;127;48.770;9.212;2022-11-15T04:34:00;8.30;99.90
285;DHT22;127;48.770;9.212;2022-11-15T04:36:31;8.30;99.90
285;DHT22;127;48.770;9.212;2022-11-15T04:39:12;8.30;99.90
285;DHT22;127;48.770;9.212;2022-11-15T04:41:41;8.40;99.90
285;DHT22;127;48.770;9.212;2022-11-15T04:44:10;8.50;99.90
285;DHT22;127;48.770;9.212;2022-11-15T04:46:38;8.50;99.90
285;DHT22;127;48.770;9.212;2022-11-15T04:49:07;8.60;99.90
285;DHT22;127;48.770;9.212;2022-11-15T04:51:38;8.60;99.90
285;DHT22;127;48.770;9.212;2022-11-15T04:54:07;8.50;99.90
285;DHT22;127;48.770;9.212;2022-11-15T04:56:36;8.60;99.90
285;DHT22;127;48.770;9.212;2022-11-15T04:59:04;8.50;99.90
285;DHT22;127;48.770;9.212;2022-11-15T05:01:33;8.50;99.90
285;DHT22;127;48.770;9.212;2022-11-15T05:04:02;8.40;99.90
285;DHT22;127;48.770;9.212;2022-11-15T05:06:46;8.40;99.90
285;DHT22;127;48.770;9.212;2022-11-15T05:09:15;8.50;99.90
285;DHT22;127;48.770;9.212;2022-11-15T05:11:44;8.60;99.90
285;DHT22;127;48.770;9.212;2022-11-15T05:14:13;8.90;99.90
285;DHT22;127;48.770;9.212;2022-11-15T05:16:43;9.00;99.90
285;DHT22;127;48.770;9.212;2022-11-15T05:19:11;9.00;99.90
285;DHT22;127;48.770;9.212;2022-11-15T05:21:40;9.20;99.90
285;DHT22;127;48.770;9.212;2022-11-15T05:24:12;9.20;99.90
285;DHT22;127;48.770;9.212;2022-11-15T05:26:41;9.20;99.90
285;DHT22;127;48.770;9.212;2022-11-15T05:29:10;9.20;99.90
285;DHT22;127;48.770;9.212;2022-11-15T05:31:40;9.30;99.90
285;DHT22;127;48.770;9.212;2022-11-15T05:34:09;9.30;99.90
285;DHT22;127;48.770;9.212;2022-11-15T05:36:41;9.30;99.90
285;DHT22;127;48.770;9.212;2022-11-15T05:39:14;9.50;99.90
285;DHT22;127;48.770;9.212;2022-11-15T05:41:45;9.60;99.90
285;DHT22;127;48.770;9.212;2022-11-15T05:44:17;9.70;99.90
285;DHT22;127;48.770;9.212;2022-11-15T05:46:47;9.70;99.90
285;DHT22;127;48.770;9.212;2022-11-15T05:49:23;9.70;99.90
285;DHT22;127;48.770;9.212;2022-11-15T05:51:53;9.70;99.90
285;DHT22;127;48.770;9.212;2022-11-15T05:54:25;9.50;99.90
285;DHT22;127;48.770;9.212;2022-11-15T05:56:54;9.20;99.90
285;DHT22;127;48.770;9.212;2022-11-15T05:59:23;8.90;99.90
285;DHT22;127;48.770;9.212;2022-11-15T06:01:52;8.70;99.90
285;DHT22;127;48.770;9.212;2022-11-15T06:04:21;8.60;99.90
285;DHT22;127;48.770;9.212;2022-11-15T06:06:49;8.50;99.90
285;DHT22;127;48.770;9.212;2022-11-15T06:09:18;8.40;99.90
285;DHT22;127;48.770;9.212;2022-11-15T06:11:49;8.30;99.90
285;DHT22;127;48.770;9.212;2022-11-15T06:14:18;8.30;99.90
285;DHT22;127;48.770;9.212;2022-11-15T06:16:47;8.30;99.90
285;DHT22;127;48.770;9.212;2022-11-15T06:19:15;8.30;99.90
285;DHT22;127;48.770;9.212;2022-11-15T06:21:44;8.20;99.90
285;DHT22;127;48.770;9.212;2022-11-15T06:24:13;8.20;99.90
285;DHT22;127;48.770;9.212;2022-11-15T06:26:41;8.20;99.90
285;DHT22;127;48.770;9.212;2022-11-15T06:29:19;8.20;99.90
285;DHT22;127;48.770;9.212;2022-11-15T06:31:47;8.10;99.90
285;DHT22;127;48.770;9.212;2022-11-15T06:34:16;8.00;99.90
285;DHT22;127;48.770;9.212;2022-11-15T06:36:44;8.00;99.90
285;DHT22;127;48.770;9.212;2022-11-15T06:39:13;8.00;99.90
285;DHT22;127;48.770;9.212;2022-11-15T06:41:42;8.00;99.90
285;DHT22;127;48.770;9.212;2022-11-15T06:44:10;8.00;99.90
285;DHT22;127;48.770;9.212;2022-11-15T06:46:42;8.00;99.90
285;DHT22;127;48.770;9.212;2022-11-15T06:49:10;8.00;99.90
285;DHT22;127;48.770;9.212;2022-11-15T06:51:39;8.00;99.90
285;DHT22;127;48.770;9.212;2022-11-15T06:54:08;8.00;99.90
285;DHT22;127;48.770;9.212;2022-11-15T06:56:37;8.10;99.90
285;DHT22;127;48.770;9.212;2022-11-15T06:59:05;8.10;99.90
285;DHT22;127;48.770;9.212;2022-11-15T07:01:34;8.10;99.90
285;DHT22;127;48.770;9.212;2022-11-15T07:04:05;8.10;99.90
285;DHT22;127;48.770;9.212;2022-11-15T07:06:34;8.10;99.90
285;DHT22;127;48.770;9.212;2022-11-15T07:09:03;8.20;99.90
285;DHT22;127;48.770;9.212;2022-11-15T07:11:33;8.30;99.90
285;DHT22;127;48.770;9.212;2022-11-15T07:14:01;8.30;99.90
285;DHT22;127;48.770;9.212;2022-11-15T07:16:30;8.30;99.90
285;DHT22;127;48.770;9.212;2022-11-15T07:18:59;8.30;99.90
285;DHT22;127;48.770;9.212;2022-11-15T07:21:30;8.30;99.90
285;DHT22;127;48.770;9.212;2022-11-15T07:23:59;8.40;99.90
285;DHT22;127;48.770;9.212;2022-11-15T07:26:27;8.40;99.90
285;DHT22;127;48.770;9.212;2022-11-15T07:28:56;8.50;99.90
285;DHT22;127;48.770;9.212;2022-11-15T07:31:24;8.50;99.90
285;DHT22;127;48.770;9.212;2022-11-15T07:33:53;8.70;99.90
285;DHT22;127;48.770;9.212;2022-11-15T07:36:24;8.90;99.90
285;DHT22;127;48.770;9.212;2022-11-15T07:38:55;8.90;99.90
285;DHT22;127;48.770;9.212;2022-11-15T07:41:24;9.10;99.90
285;DHT22;127;48.770;9.212;2022-11-15T07:43:53;9.30;99.90
285;DHT22;127;48.770;9.212;2022-11-15T07:46:23;9.60;99.90
285;DHT22;127;48.770;9.212;2022-11-15T07:48:51;9.90;99.90
285;DHT22;127;48.770;9.212;2022-11-15T07:51:20;10.10;99.90
285;DHT22;127;48.770;9.212;2022-11-15T07:53:49;10.20;99.90
285;DHT22;127;48.770;9.212;2022-11-15T07:56:20;10.40;99.90
285;DHT22;127;48.770;9.212;2022-11-15T07:58:49;10.70;99.90
285;DHT22;127;48.770;9.212;2022-11-15T08:01:17;11.00;99.90
285;DHT22;127;48.770;9.212;2022-11-15T08:03:46;11.30;99.90
285;DHT22;127;48.770;9.212;2022-11-15T08:06:15;11.40;99.90
285;DHT22;127;48.770;9.212;2022-11-15T08:08:43;11.50;99.90
285;DHT22;127;48.770;9.212;2022-11-15T08:11:12;11.70;99.90
285;DHT22;127;48.770;9.212;2022-11-15T08:13:43;12.00;99.90
285;DHT22;127;48.770;9.212;2022-11-15T08:16:12;12.20;99.90
285;DHT22;127;48.770;9.212;2022-11-15T08:18:40;12.30;99.90
285;DHT22;127;48.770;9.212;2022-11-15T08:21:09;12.40;99.90
285;DHT22;127;48.770;9.212;2022-11-15T08:23:38;12.30;99.90
285;DHT22;127;48.770;9.212;2022-11-15T08:26:06;12.40;99.90
285;DHT22;127;48.770;9.212;2022-11-15T08:28:37;12.30;99.90
285;DHT22;127;48.770;9.212;2022-11-15T08:31:13;12.00;99.90
285;DHT22;127;48.770;9.212;2022-11-15T08:33:42;12.00;99.90
285;DHT22;127;48.770;9.212;2022-11-15T08:36:14;11.80;99.90
285;DHT22;127;48.770;9.212;2022-11-15T08:38:43;11.70;99.90
285;DHT22;127;48.770;9.212;2022-11-15T08:41:14;11.70;99.90
285;DHT22;127;48.770;9.212;2022-11-15T08:43:45;11.70;99.90
285;DHT22;127;48.770;9.212;2022-11-15T08:46:16;11.70;99.90
285;DHT22;127;48.770;9.212;2022-11-15T08:48:45;11.70;99.90
285;DHT22;127;48.770;9.212;2022-11-15T08:51:14;11.90;99.90
285;DHT22;127;48.770;9.212;2022-11-15T08:53:43;11.90;99.90
285;DHT22;127;48.770;9.212;2022-11-15T08:56:14;11.90;99.90
285;DHT22;127;48.770;9.212;2022-11-15T08:58:43;12.00;99.90
285;DHT22;127;48.770;9.212;2022-11-15T09:01:19;12.00;99.90
285;DHT22;127;48.770;9.212;2022-11-15T09:03:49;12.10;99.90
285;DHT22;127;48.770;9.212;2022-11-15T09:06:18;12.20;99.90
285;DHT22;127;48.770;9.212;2022-11-15T09:08:47;12.30;99.90
285;DHT22;127;48.770;9.212;2022-11-15T09:11:16;12.50;99.90
285;DHT22;127;48.770;9.212;2022-11-15T09:13:47;12.80;99.90
285;DHT22;127;48.770;9.212;2022-11-15T09:16:18;13.00;99.90
285;DHT22;127;48.770;9.212;2022-11-15T09:18:49;13.30;99.90
285;DHT22;127;48.770;9.212;2022-11-15T09:21:18;13.30;99.90
285;DHT22;127;48.770;9.212;2022-11-15T09:23:49;13.50;99.90
285;DHT22;127;48.770;9.212;2022-11-15T09:26:18;13.90;99.90
285;DHT22;127;48.770;9.212;2022-11-15T09:28:47;13.80;99.90
285;DHT22;127;48.770;9.212;2022-11-15T09:31:18;13.90;99.90
285;DHT22;127;48.770;9.212;2022-11-15T09:33:47;14.30;99.90
285;DHT22;127;48.770;9.212;2022-11-15T09:36:16;14.30;99.90
285;DHT22;127;48.770;9.212;2022-11-15T09:38:45;14.50;99.90
285;DHT22;127;48.770;9.212;2022-11-15T09:41:40;14.80;99.90
285;DHT22;127;48.770;9.212;2022-11-15T09:44:26;14.80;99.90
285;DHT22;127;48.770;9.212;2022-11-15T09:47:08;15.10;99.90
285;DHT22;127;48.770;9.212;2022-11-15T09:49:38;15.10;99.90
285;DHT22;127;48.770;9.212;2022-11-15T09:52:07;14.90;99.90
285;DHT22;127;48.770;9.212;2022-11-15T09:54:39;14.90;99.90
285;DHT22;127;48.770;9.212;2022-11-15T09:57:12;14.90;99.90
285;DHT22;127;48.770;9.212;2022-11-15T09:59:50;15.20;99.90
285;DHT22;127;48.770;9.212;2022-11-15T10:02:38;15.30;99.90
285;DHT22;127;48.770;9.212;2022-11-15T10:05:13;15.50;99.90
285;DHT22;127;48.770;9.212;2022-11-15T10:07:49;16.20;99.90
285;DHT22;127;48.770;9.212;2022-11-15T10:10:25;16.70;99.90
285;DHT22;127;48.770;9.212;2022-11-15T10:12:55;17.10;99.90
285;DHT22;127;48.770;9.212;2022-11-15T10:15:24;16.80;99.90
285;DHT22;127;48.770;9.212;2022-11-15T10:18:15;16.80;99.90
285;DHT22;127;48.770;9.212;2022-11-15T10:20:49;16.40;99.90
285;DHT22;127;48.770;9.212;2022-11-15T10:23:20;16.40;99.90
285;DHT22;127;48.770;9.212;2022-11-15T10:25:52;16.50;99.90
285;DHT22;127;48.770;9.212;2022-11-15T10:28:25;16.00;99.90
285;DHT22;127;48.770;9.212;2022-11-15T10:30:55;16.20;99.90
285;DHT22;127;48.770;9.212;2022-11-15T10:33:31;16.40;99.90
285;DHT22;127;48.770;9.212;2022-11-15T10:36:19;16.10;99.90
285;DHT22;127;48.770;9.212;2022-11-15T10:38:57;15.70;99.90
285;DHT22;127;48.770;9.212;2022-11-15T10:41:32;15.70;99.90
285;DHT22;127;48.770;9.212;2022-11-15T10:44:19;16.00;99.90
285;DHT22;127;48.770;9.212;2022-11-15T10:47:05;16.00;99.90
285;DHT22;127;48.770;9.212;2022-11-15T10:49:53;16.10;99.90
285;DHT22;127;48.770;9.212;2022-11-15T10:52:22;16.40;99.90
285;DHT22;127;48.770;9.212;2022-11-15T10:54:55;16.10;99.90
285;DHT22;127;48.770;9.212;2022-11-15T10:57:26;15.80;99.90
285;DHT22;127;48.770;9.212;2022-11-15T11:00:00;15.80;99.90
285;DHT22;127;48.770;9.212;2022-11-15T11:02:31;15.90;99.90
285;DHT22;127;48.770;9.212;2022-11-15T11:05:05;15.60;99.90
285;DHT22;127;48.770;9.212;2022-11-15T11:07:35;15.60;99.90
285;DHT22;127;48.770;9.212;2022-11-15T11:10:20;15.70;99.90
285;DHT22;127;48.770;9.212;2022-11-15T11:12:49;15.50;99.90
285;DHT22;127;48.770;9.212;2022-11-15T11:15:18;15.40;99.90
285;DHT22;127;48.770;9.212;2022-11-15T11:17:57;15.30;99.90
285;DHT22;127;48.770;9.212;2022-11-15T11:20:32;15.50;99.90
285;DHT22;127;48.770;9.212;2022-11-15T11:23:12;15.60;99.90
285;DHT22;127;48.770;9.212;2022-11-15T11:25:50;15.60;99.90
285;DHT22;127;48.770;9.212;2022-11-15T11:28:35;15.40;99.90
285;DHT22;127;48.770;9.212;2022-11-15T11:31:17;15.30;99.90
285;DHT22;127;48.770;9.212;2022-11-15T11:33:57;15.40;99.90
285;DHT22;127;48.770;9.212;2022-11-15T11:36:43;15.90;99.90
285;DHT22;127;48.770;9.212;2022-11-15T11:39:24;16.00;99.90
285;DHT22;127;48.770;9.212;2022-11-15T11:42:01;16.10;99.90
285;DHT22;127;48.770;9.212;2022-11-15T11:44:39;16.30;99.90
285;DHT22;127;48.770;9.212;2022-11-15T11:47:13;16.20;99.90
285;DHT22;127;48.770;9.212;2022-11-15T11:49:46;16.30;99.90
285;DHT22;127;48.770;9.212;2022-11-15T11:52:26;16.20;99.90
285;DHT22;127;48.770;9.212;2022-11-15T11:55:02;16.00;99.90
285;DHT22;127;48.770;9.212;2022-11-15T11:57:38;15.90;99.90
285;DHT22;127;48.770;9.212;2022-11-15T12:00:18;15.80;99.90
285;DHT22;127;48.770;9.212;2022-11-15T12:02:54;15.70;99.90
285;DHT22;127;48.770;9.212;2022-11-15T12:05:34;15.80;99.90
285;DHT22;127;48.770;9.212;2022-11-15T12:08:27;15.90;99.90
285;DHT22;127;48.770;9.212;2022-11-15T12:11:03;16.20;99.90
285;DHT22;127;48.770;9.212;2022-11-15T12:13:34;16.80;99.90
285;DHT22;127;48.770;9.212;2022-11-15T12:16:11;17.40;99.90
285;DHT22;127;48.770;9.212;2022-11-15T12:18:43;17.50;99.90
285;DHT22;127;48.770;9.212;2022-11-15T12:21:21;17.60;99.90
285;DHT22;127;48.770;9.212;2022-11-15T12:23:58;17.20;99.90
285;DHT22;127;48.770;9.212;2022-11-15T12:26:32;16.50;99.90
285;DHT22;127;48.770;9.212;2022-11-15T12:29:09;16.60;99.90
285;DHT22;127;48.770;9.212;2022-11-15T12:31:42;16.40;99.90
285;DHT22;127;48.770;9.212;2022-11-15T12:34:29;16.20;99.90
285;DHT22;127;48.770;9.212;2022-11-15T12:36:58;15.80;99.90
285;DHT22;127;48.770;9.212;2022-11-15T12:42:40;15.50;99.90
285;DHT22;127;48.770;9.212;2022-11-15T12:45:26;15.20;99.90
285;DHT22;127;48.770;9.212;2022-11-15T12:50:56;14.80;99.90
285;DHT22;127;48.770;9.212;2022-11-15T12:53:29;14.90;99.90
285;DHT22;127;48.770;9.212;2022-11-15T12:56:22;14.90;99.90
285;DHT22;127;48.770;9.212;2022-11-15T12:58:59;14.80;99.90
285;DHT22;127;48.770;9.212;2022-11-15T13:01:56;14.70;99.90
285;DHT22;127;48.770;9.212;2022-11-15T13:04:28;14.70;99.90
285;DHT22;127;48.770;9.212;2022-11-15T13:07:00;14.70;99.90
285;DHT22;127;48.770;9.212;2022-11-15T13:09:51;14.60;99.90
285;DHT22;127;48.770;9.212;2022-11-15T13:15:56;14.50;99.90
285;DHT22;127;48.770;9.212;2022-11-15T13:18:36;14.50;99.90
285;DHT22;127;48.770;9.212;2022-11-15T13:21:22;14.50;99.90
285;DHT22;127;48.770;9.212;2022-11-15T13:24:04;14.30;99.90
285;DHT22;127;48.770;9.212;2022-11-15T13:26:33;14.30;99.90
285;DHT22;127;48.770;9.212;2022-11-15T13:29:02;14.20;99.90
285;DHT22;127;48.770;9.212;2022-11-15T13:31:41;14.10;99.90
285;DHT22;127;48.770;9.212;2022-11-15T13:34:29;14.10;99.90
285;DHT22;127;48.770;9.212;2022-11-15T13:36:59;14.10;99.90
285;DHT22;127;48.770;9.212;2022-11-15T13:39:29;14.00;99.90
285;DHT22;127;48.770;9.212;2022-11-15T13:41:59;13.90;99.90
285;DHT22;127;48.770;9.212;2022-11-15T13:44:30;14.00;99.90
285;DHT22;127;48.770;9.212;2022-11-15T13:47:07;13.90;99.90
285;DHT22;127;48.770;9.212;2022-11-15T13:49:37;13.90;99.90
285;DHT22;127;48.770;9.212;2022-11-15T13:52:09;13.80;99.90
285;DHT22;127;48.770;9.212;2022-11-15T13:54:42;13.80;99.90
285;DHT22;127;48.770;9.212;2022-11-15T13:57:13;13.80;99.90
285;DHT22;127;48.770;9.212;2022-11-15T13:59:48;13.90;99.90
285;DHT22;127;48.770;9.212;2022-11-15T14:02:24;13.80;99.90
285;DHT22;127;48.770;9.212;2022-11-15T14:04:56;13.70;99.90
285;DHT22;127;48.770;9.212;2022-11-15T14:07:27;13.60;99.90
285;DHT22;127;48.770;9.212;2022-11-15T14:09:56;13.40;99.90
285;DHT22;127;48.770;9.212;2022-11-15T14:12:28;13.30;99.90
285;DHT22;127;48.770;9.212;2022-11-15T14:14:58;13.20;99.90
285;DHT22;127;48.770;9.212;2022-11-15T14:17:37;13.10;99.90
285;DHT22;127;48.770;9.212;2022-11-15T14:20:30;13.10;99.90
285;DHT22;127;48.770;9.212;2022-11-15T14:23:00;13.10;99.90
285;DHT22;127;48.770;9.212;2022-11-15T14:25:30;12.90;99.90
285;DHT22;127;48.770;9.212;2022-11-15T14:28:28;12.70;99.90
285;DHT22;127;48.770;9.212;2022-11-15T14:30:59;12.50;99.90
285;DHT22;127;48.770;9.212;2022-11-15T14:33:32;12.40;99.90
285;DHT22;127;48.770;9.212;2022-11-15T14:36:04;12.40;99.90
285;DHT22;127;48.770;9.212;2022-11-15T14:38:33;12.60;99.90
285;DHT22;127;48.770;9.212;2022-11-15T14:41:03;12.80;99.90
285;DHT22;127;48.770;9.212;2022-11-15T14:43:31;12.80;99.90
285;DHT22;127;48.770;9.212;2022-11-15T14:46:00;12.60;99.90
285;DHT22;127;48.770;9.212;2022-11-15T14:48:31;12.70;99.90
285;DHT22;127;48.770;9.212;2022-11-15T14:51:00;12.60;99.90
285;DHT22;127;48.770;9.212;2022-11-15T14:53:29;12.60;99.90
285;DHT22;127;48.770;9.212;2022-11-15T14:55:59;12.40;99.90
285;DHT22;127;48.770;9.212;2022-11-15T14:58:28;12.30;99.90
285;DHT22;127;48.770;9.212;2022-11-15T15:00:57;12.20;99.90
285;DHT22;127;48.770;9.212;2022-11-15T15:03:25;12.20;99.90
285;DHT22;127;48.770;9.212;2022-11-15T15:05:56;12.20;99.90
285;DHT22;127;48.770;9.212;2022-11-15T15:08:25;12.20;99.90
285;DHT22;127;48.770;9.212;2022-11-15T15:10:54;12.20;99.90
285;DHT22;127;48.770;9.212;2022-11-15T15:13:23;12.20;99.90
285;DHT22;127;48.770;9.212;2022-11-15T15:15:54;12.20;99.90
285;DHT22;127;48.770;9.212;2022-11-15T15:18:22;12.20;99.90
285;DHT22;127;48.770;9.212;2022-11-15T15:20:57;12.10;99.90
285;DHT22;127;48.770;9.212;2022-11-15T15:23:29;12.00;99.90
285;DHT22;127;48.770;9.212;2022-11-15T15:25:57;12.10;99.90
285;DHT22;127;48.770;9.212;2022-11-15T15:28:26;12.10;99.90
285;DHT22;127;48.770;9.212;2022-11-15T15:30:55;12.10;99.90
285;DHT22;127;48.770;9.212;2022-11-15T15:33:23;12.20;99.90
285;DHT22;127;48.770;9.212;2022-11-15T15:35:52;12.10;99.90
285;DHT22;127;48.770;9.212;2022-11-15T15:38:23;12.20;99.90
285;DHT22;127;48.770;9.212;2022-11-15T15:40:52;12.00;99.90
285;DHT22;127;48.770;9.212;2022-11-15T15:43:21;11.90;99.90
285;DHT22;127;48.770;9.212;2022-11-15T15:45:49;11.90;99.90
285;DHT22;127;48.770;9.212;2022-11-15T15:48:18;11.90;99.90
285;DHT22;127;48.770;9.212;2022-11-15T15:50:47;11.80;99.90
285;DHT22;127;48.770;9.212;2022-11-15T15:53:16;11.70;99.90
285;DHT22;127;48.770;9.212;2022-11-15T15:55:47;11.70;99.90
285;DHT22;127;48.770;9.212;2022-11-15T15:58:16;11.70;99.90
285;DHT22;127;48.770;9.212;2022-11-15T16:00:44;11.70;99.90
285;DHT22;127;48.770;9.212;2022-11-15T16:03:13;11.70;99.90
285;DHT22;127;48.770;9.212;2022-11-15T16:05:42;11.70;99.90
285;DHT22;127;48.770;9.212;2022-11-15T16:08:18;11.70;99.90
285;DHT22;127;48.770;9.212;2022-11-15T16:10:49;11.70;99.90
285;DHT22;127;48.770;9.212;2022-11-15T16:13:18;11.70;99.90
285;DHT22;127;48.770;9.212;2022-11-15T16:15:49;11.70;99.90
285;DHT22;127;48.770;9.212;2022-11-15T16:18:19;11.70;99.90
285;DHT22;127;48.770;9.212;2022-11-15T16:20:48;11.70;99.90
285;DHT22;127;48.770;9.212;2022-11-15T16:23:22;11.60;99.90
285;DHT22;127;48.770;9.212;2022-11-15T16:25:57;11.60;99.90
285;DHT22;127;48.770;9.212;2022-11-15T16:28:30;11.60;99.90
285;DHT22;127;48.770;9.212;2022-11-15T16:31:00;11.60;99.90
285;DHT22;127;48.770;9.212;2022-11-15T16:33:29;11.60;99.90
285;DHT22;127;48.770;9.212;2022-11-15T16:35:58;11.60;99.90
285;DHT22;127;48.770;9.212;2022-11-15T16:38:27;11.60;99.90
285;DHT22;127;48.770;9.212;2022-11-15T16:40:58;11.60;99.90
285;DHT22;127;48.770;9.212;2022-11-15T16:43:27;11.60;99.90
285;DHT22;127;48.770;9.212;2022-11-15T16:45:56;11.60;99.90
285;DHT22;127;48.770;9.212;2022-11-15T16:48:26;11.70;99.90
285;DHT22;127;48.770;9.212;2022-11-15T16:50:56;11.70;99.90
285;DHT22;127;48.770;9.212;2022-11-15T16:53:26;11.70;99.90
285;DHT22;127;48.770;9.212;2022-11-15T16:55:59;11.60;99.90
285;DHT22;127;48.770;9.212;2022-11-15T16:58:28;11.60;99.90
285;DHT22;127;48.770;9.212;2022-11-15T17:00:58;11.70;99.90
285;DHT22;127;48.770;9.212;2022-11-15T17:03:26;11.70;99.90
285;DHT22;127;48.770;9.212;2022-11-15T17:05:57;11.60;99.90
285;DHT22;127;48.770;9.212;2022-11-15T17:08:26;11.70;99.90
285;DHT22;127;48.770;9.212;2022-11-15T17:10:58;11.70;99.90
285;DHT22;127;48.770;9.212;2022-11-15T17:13:26;11.60;99.90
285;DHT22;127;48.770;9.212;2022-11-15T17:16:03;11.70;99.90
285;DHT22;127;48.770;9.212;2022-11-15T17:18:33;11.60;99.90
285;DHT22;127;48.770;9.212;2022-11-15T17:21:06;11.60;99.90
285;DHT22;127;48.770;9.212;2022-11-15T17:23:35;11.50;99.90
285;DHT22;127;48.770;9.212;2022-11-15T17:26:06;11.40;99.90